Barfleur — FNIE — position and weather

sailwx.info

Track history (hours):
 
Tides and Currents Weather Stations Pressure Air Temp Water Temp Dewpoint Dewpoint Depression Visibility Wind Speed Wind Dir Waves Ship Positions

Barfleur

Operator: Brittany Ferries

Last reported at 2016-Apr-28 21:34 UTC. Time now 2016-Apr-28 21:53 UTC.
Position N 50°42' W 001°59'.

Length 158 m; draft 5 m.

Type: Passenger vessel. MMSI: 227289000.

Date/timePositionNaut miles runAvg speedWind from/ knotsBaromVisibWave heightAir tempDewpointWater temp
2016-Apr-28 21:34N 50°42' W 001°59'1 0.7
2016-Apr-28 20:33N 50°42' W 001°58'1414.0
2016-Apr-28 19:33N 50°29' W 001°52'5 0.5
2016-Apr-28 08:33N 50°34' W 001°54'9 9.2
2016-Apr-28 07:34N 50°42' W 001°59'0 0.0
2016-Apr-28 06:33N 50°42' W 001°59'1 1.1
2016-Apr-28 05:33N 50°42' W 001°58'1313.1
2016-Apr-28 04:33N 50°30' W 001°52'2 0.1
2016-Apr-27 08:33N 50°28' W 001°53'1414.5
2016-Apr-27 07:34N 50°42' W 001°58'1 1.0
2016-Apr-27 06:34N 50°42' W 001°59'1 1.3
2016-Apr-27 05:34N 50°42' W 001°57'1313.0
2016-Apr-27 04:33N 50°30' W 001°51'3 0.1
2016-Apr-26 08:33N 50°27' W 001°50'1515.1
2016-Apr-26 07:33N 50°41' W 001°57'2 1.9
2016-Apr-26 06:33N 50°42' W 001°59'0 0.0
2016-Apr-26 05:34N 50°42' W 001°59'0 0.0
2016-Apr-26 04:33N 50°42' W 001°59'0 0.0
2016-Apr-26 03:33N 50°42' W 001°59'0 0.0
2016-Apr-26 02:33N 50°42' W 001°59'0 0.0
2016-Apr-26 01:33N 50°42' W 001°59'0 0.0
2016-Apr-26 00:33N 50°42' W 001°59'0 0.0
2016-Apr-25 23:33N 50°42' W 001°59'0 0.0
2016-Apr-25 22:33N 50°42' W 001°59'0 0.0
2016-Apr-25 21:33N 50°42' W 001°59'0 0.1
2016-Apr-25 20:33N 50°42' W 001°59'1413.6
2016-Apr-25 19:33N 50°30' W 001°52'0 0.0
2016-Apr-25 08:34N 50°30' W 001°51'1413.5
2016-Apr-25 07:33N 50°42' W 001°59'0 0.4
2016-Apr-25 06:33N 50°42' W 001°59'0 0.0
2016-Apr-25 05:33N 50°42' W 001°59'0 0.0
2016-Apr-25 04:33N 50°42' W 001°59'0 0.0
2016-Apr-25 03:33N 50°42' W 001°59'0 0.0
2016-Apr-25 02:33N 50°42' W 001°59'0 0.0
2016-Apr-25 01:33N 50°42' W 001°59'0 0.0
2016-Apr-25 00:34N 50°42' W 001°59'0 0.0
2016-Apr-24 23:33N 50°42' W 001°59'0 0.0
2016-Apr-24 22:34N 50°42' W 001°59'0 0.0
2016-Apr-24 21:33N 50°42' W 001°59'0 0.0
2016-Apr-24 20:33N 50°42' W 001°59'1211.7
2016-Apr-24 19:33N 50°32' W 001°52'4 0.4
2016-Apr-24 08:32N 50°28' W 001°51'1515.0
2016-Apr-24 07:33N 50°42' W 001°57'2 1.5
2016-Apr-24 06:34N 50°42' W 001°59'0 0.0
2016-Apr-24 05:34N 50°42' W 001°59'0 0.0
2016-Apr-24 04:34N 50°42' W 001°59'0 0.0
2016-Apr-24 03:34N 50°42' W 001°59'0 0.0
2016-Apr-24 02:34N 50°42' W 001°59'0 0.0
2016-Apr-24 01:34N 50°42' W 001°59'0 0.0
2016-Apr-24 00:34N 50°42' W 001°59'0 0.0
2016-Apr-23 23:34N 50°42' W 001°59'0 0.0
2016-Apr-23 22:33N 50°42' W 001°59'0 0.0
2016-Apr-23 21:34N 50°42' W 001°59'0 0.0
2016-Apr-23 20:34N 50°42' W 001°59'1111.1
2016-Apr-23 19:33N 50°32' W 001°52'3 0.2
2016-Apr-23 08:33N 50°30' W 001°53'1313.1
2016-Apr-23 07:33N 50°42' W 001°59'0 0.0
2016-Apr-23 06:33N 50°42' W 001°59'0 0.0
2016-Apr-23 05:33N 50°42' W 001°59'0 0.0
2016-Apr-23 04:33N 50°42' W 001°59'0 0.0
2016-Apr-23 03:33N 50°42' W 001°59'0 0.0
2016-Apr-23 02:33N 50°42' W 001°59'0 0.0
2016-Apr-23 01:33N 50°42' W 001°59'0 0.0
2016-Apr-23 00:33N 50°42' W 001°59'0 0.0
2016-Apr-22 23:33N 50°42' W 001°59'0 0.0
2016-Apr-22 22:33N 50°42' W 001°59'0 0.0
2016-Apr-22 21:33N 50°42' W 001°59'0 0.0
2016-Apr-22 20:33N 50°42' W 001°59'1312.7
2016-Apr-22 19:33N 50°31' W 001°52'1 0.1
2016-Apr-22 08:32N 50°30' W 001°51'1313.8
2016-Apr-22 07:33N 50°42' W 001°59'1 0.5
2016-Apr-22 06:33N 50°42' W 001°59'0 0.0
2016-Apr-22 05:33N 50°42' W 001°59'0 0.0
2016-Apr-22 04:33N 50°42' W 001°59'0 0.0
2016-Apr-22 03:33N 50°42' W 001°59'0 0.0
2016-Apr-22 02:33N 50°42' W 001°59'0 0.0
2016-Apr-22 01:33N 50°42' W 001°59'0 0.0
2016-Apr-22 00:33N 50°42' W 001°59'0 0.0
2016-Apr-21 23:33N 50°42' W 001°59'0 0.0
2016-Apr-21 22:33N 50°42' W 001°59'0 0.0
2016-Apr-21 21:33N 50°42' W 001°59'0 0.4
2016-Apr-21 20:33N 50°42' W 001°59'1413.6
2016-Apr-21 19:33N 50°30' W 001°51'2218.3
2016-Apr-21 18:20N 50°07' W 001°48'1418.5
2016-Apr-21 17:33N 49°53' W 001°44'38 4.2
2016-Apr-21 08:31N 50°30' W 001°51'1313.6
2016-Apr-21 07:34N 50°42' W 001°59'0 0.1
2016-Apr-21 06:34N 50°42' W 001°59'1 0.7
2016-Apr-21 05:33N 50°42' W 001°58'7 7.3
2016-Apr-21 04:33N 50°35' W 001°55'2 1.7
2016-Apr-21 03:33N 50°35' W 001°52'3 2.7
2016-Apr-21 02:33N 50°36' W 001°48'3 3.1
2016-Apr-21 01:32N 50°33' W 001°50'2913.1
2016-Apr-20 23:18N 50°04' W 001°43'2212.2
2016-Apr-20 21:33N 49°44' W 001°33'29 2.5
2016-Apr-20 09:32N 50°12' W 001°47'1818.5
2016-Apr-20 08:33N 50°30' W 001°52'1413.7
2016-Apr-20 07:33N 50°42' W 001°59'0 0.1
2016-Apr-20 06:33N 50°42' W 001°59'0 0.3
2016-Apr-20 05:33N 50°42' W 001°59'1312.5
2016-Apr-20 04:33N 50°30' W 001°53'4213.9
2016-Apr-20 01:30N 49°48' W 001°46'6 5.0
2016-Apr-20 00:16N 49°45' W 001°38'2 1.4
2016-Apr-19 22:33N 49°45' W 001°42'3 3.3
2016-Apr-19 21:32N 49°44' W 001°37'45 3.5
2016-Apr-19 08:33N 50°29' W 001°52'1414.4
2016-Apr-19 07:33N 50°42' W 001°58'1 0.7
2016-Apr-19 06:33N 50°42' W 001°59'0 0.0
2016-Apr-19 05:33N 50°42' W 001°59'0 0.0
2016-Apr-19 04:33N 50°42' W 001°59'0 0.0
2016-Apr-19 03:33N 50°42' W 001°59'0 0.0
2016-Apr-19 02:33N 50°42' W 001°59'0 0.0
2016-Apr-19 01:33N 50°42' W 001°59'0 0.0
2016-Apr-19 00:33N 50°42' W 001°59'0 0.0
2016-Apr-18 23:33N 50°42' W 001°59'0 0.0
2016-Apr-18 22:33N 50°42' W 001°59'  
Track history (hours):
 
Tides and Currents Weather Stations Pressure Air Temp Water Temp Dewpoint Dewpoint Depression Visibility Wind Speed Wind Dir Waves Ship Positions

Barfleur

Operator: Brittany Ferries

Last reported at 2016-Apr-28 21:34 UTC. Time now 2016-Apr-28 21:53 UTC.
Position N 50°42' W 001°59'.

Length 158 m; draft 5 m.

Type: Passenger vessel. MMSI: 227289000.

Date/timePositionNaut miles runAvg speedWind from/ knotsBaromVisibWave heightAir tempDewpointWater temp
2016-Apr-28 21:34N 50°42' W 001°59'1 0.7
2016-Apr-28 20:33N 50°42' W 001°58'1414.0
2016-Apr-28 19:33N 50°29' W 001°52'5 0.5
2016-Apr-28 08:33N 50°34' W 001°54'9 9.2
2016-Apr-28 07:34N 50°42' W 001°59'0 0.0
2016-Apr-28 06:33N 50°42' W 001°59'1 1.1
2016-Apr-28 05:33N 50°42' W 001°58'1313.1
2016-Apr-28 04:33N 50°30' W 001°52'2 0.1
2016-Apr-27 08:33N 50°28' W 001°53'1414.5
2016-Apr-27 07:34N 50°42' W 001°58'1 1.0
2016-Apr-27 06:34N 50°42' W 001°59'1 1.3
2016-Apr-27 05:34N 50°42' W 001°57'1313.0
2016-Apr-27 04:33N 50°30' W 001°51'3 0.1
2016-Apr-26 08:33N 50°27' W 001°50'1515.1
2016-Apr-26 07:33N 50°41' W 001°57'2 1.9
2016-Apr-26 06:33N 50°42' W 001°59'0 0.0
2016-Apr-26 05:34N 50°42' W 001°59'0 0.0
2016-Apr-26 04:33N 50°42' W 001°59'0 0.0
2016-Apr-26 03:33N 50°42' W 001°59'0 0.0
2016-Apr-26 02:33N 50°42' W 001°59'0 0.0
2016-Apr-26 01:33N 50°42' W 001°59'0 0.0
2016-Apr-26 00:33N 50°42' W 001°59'0 0.0
2016-Apr-25 23:33N 50°42' W 001°59'0 0.0
2016-Apr-25 22:33N 50°42' W 001°59'0 0.0
2016-Apr-25 21:33N 50°42' W 001°59'0 0.1
2016-Apr-25 20:33N 50°42' W 001°59'1413.6
2016-Apr-25 19:33N 50°30' W 001°52'0 0.0
2016-Apr-25 08:34N 50°30' W 001°51'1413.5
2016-Apr-25 07:33N 50°42' W 001°59'0 0.4
2016-Apr-25 06:33N 50°42' W 001°59'0 0.0
2016-Apr-25 05:33N 50°42' W 001°59'0 0.0
2016-Apr-25 04:33N 50°42' W 001°59'0 0.0
2016-Apr-25 03:33N 50°42' W 001°59'0 0.0
2016-Apr-25 02:33N 50°42' W 001°59'0 0.0
2016-Apr-25 01:33N 50°42' W 001°59'0 0.0
2016-Apr-25 00:34N 50°42' W 001°59'0 0.0
2016-Apr-24 23:33N 50°42' W 001°59'0 0.0
2016-Apr-24 22:34N 50°42' W 001°59'0 0.0
2016-Apr-24 21:33N 50°42' W 001°59'0 0.0
2016-Apr-24 20:33N 50°42' W 001°59'1211.7
2016-Apr-24 19:33N 50°32' W 001°52'4 0.4
2016-Apr-24 08:32N 50°28' W 001°51'1515.0
2016-Apr-24 07:33N 50°42' W 001°57'2 1.5
2016-Apr-24 06:34N 50°42' W 001°59'0 0.0
2016-Apr-24 05:34N 50°42' W 001°59'0 0.0
2016-Apr-24 04:34N 50°42' W 001°59'0 0.0
2016-Apr-24 03:34N 50°42' W 001°59'0 0.0
2016-Apr-24 02:34N 50°42' W 001°59'0 0.0
2016-Apr-24 01:34N 50°42' W 001°59'0 0.0
2016-Apr-24 00:34N 50°42' W 001°59'0 0.0
2016-Apr-23 23:34N 50°42' W 001°59'0 0.0
2016-Apr-23 22:33N 50°42' W 001°59'0 0.0
2016-Apr-23 21:34N 50°42' W 001°59'0 0.0
2016-Apr-23 20:34N 50°42' W 001°59'1111.1
2016-Apr-23 19:33N 50°32' W 001°52'3 0.2
2016-Apr-23 08:33N 50°30' W 001°53'1313.1
2016-Apr-23 07:33N 50°42' W 001°59'0 0.0
2016-Apr-23 06:33N 50°42' W 001°59'0 0.0
2016-Apr-23 05:33N 50°42' W 001°59'0 0.0
2016-Apr-23 04:33N 50°42' W 001°59'0 0.0
2016-Apr-23 03:33N 50°42' W 001°59'0 0.0
2016-Apr-23 02:33N 50°42' W 001°59'0 0.0
2016-Apr-23 01:33N 50°42' W 001°59'0 0.0
2016-Apr-23 00:33N 50°42' W 001°59'0 0.0
2016-Apr-22 23:33N 50°42' W 001°59'0 0.0
2016-Apr-22 22:33N 50°42' W 001°59'0 0.0
2016-Apr-22 21:33N 50°42' W 001°59'0 0.0
2016-Apr-22 20:33N 50°42' W 001°59'1312.7
2016-Apr-22 19:33N 50°31' W 001°52'1 0.1
2016-Apr-22 08:32N 50°30' W 001°51'1313.8
2016-Apr-22 07:33N 50°42' W 001°59'1 0.5
2016-Apr-22 06:33N 50°42' W 001°59'0 0.0
2016-Apr-22 05:33N 50°42' W 001°59'0 0.0
2016-Apr-22 04:33N 50°42' W 001°59'0 0.0
2016-Apr-22 03:33N 50°42' W 001°59'0 0.0
2016-Apr-22 02:33N 50°42' W 001°59'0 0.0
2016-Apr-22 01:33N 50°42' W 001°59'0 0.0
2016-Apr-22 00:33N 50°42' W 001°59'0 0.0
2016-Apr-21 23:33N 50°42' W 001°59'0 0.0
2016-Apr-21 22:33N 50°42' W 001°59'0 0.0
2016-Apr-21 21:33N 50°42' W 001°59'0 0.4
2016-Apr-21 20:33N 50°42' W 001°59'1413.6
2016-Apr-21 19:33N 50°30' W 001°51'2218.3
2016-Apr-21 18:20N 50°07' W 001°48'1418.5
2016-Apr-21 17:33N 49°53' W 001°44'38 4.2
2016-Apr-21 08:31N 50°30' W 001°51'1313.6
2016-Apr-21 07:34N 50°42' W 001°59'0 0.1
2016-Apr-21 06:34N 50°42' W 001°59'1 0.7
2016-Apr-21 05:33N 50°42' W 001°58'7 7.3
2016-Apr-21 04:33N 50°35' W 001°55'2 1.7
2016-Apr-21 03:33N 50°35' W 001°52'3 2.7
2016-Apr-21 02:33N 50°36' W 001°48'3 3.1
2016-Apr-21 01:32N 50°33' W 001°50'2913.1
2016-Apr-20 23:18N 50°04' W 001°43'2212.2
2016-Apr-20 21:33N 49°44' W 001°33'29 2.5
2016-Apr-20 09:32N 50°12' W 001°47'1818.5
2016-Apr-20 08:33N 50°30' W 001°52'1413.7
2016-Apr-20 07:33N 50°42' W 001°59'0 0.1
2016-Apr-20 06:33N 50°42' W 001°59'0 0.3
2016-Apr-20 05:33N 50°42' W 001°59'1312.5
2016-Apr-20 04:33N 50°30' W 001°53'4213.9
2016-Apr-20 01:30N 49°48' W 001°46'6 5.0
2016-Apr-20 00:16N 49°45' W 001°38'2 1.4
2016-Apr-19 22:33N 49°45' W 001°42'3 3.3
2016-Apr-19 21:32N 49°44' W 001°37'45 3.5
2016-Apr-19 08:33N 50°29' W 001°52'1414.4
2016-Apr-19 07:33N 50°42' W 001°58'1 0.7
2016-Apr-19 06:33N 50°42' W 001°59'0 0.0
2016-Apr-19 05:33N 50°42' W 001°59'0 0.0
2016-Apr-19 04:33N 50°42' W 001°59'0 0.0
2016-Apr-19 03:33N 50°42' W 001°59'0 0.0
2016-Apr-19 02:33N 50°42' W 001°59'0 0.0
2016-Apr-19 01:33N 50°42' W 001°59'0 0.0
2016-Apr-19 00:33N 50°42' W 001°59'0 0.0
2016-Apr-18 23:33N 50°42' W 001°59'0 0.0
2016-Apr-18 22:33N 50°42' W 001°59'  

Dump ship's entire track history